Terminal Aerodrome Forecast
Issued by NWS

Current Version | Previous Version | Text Only | Print | Product List | Glossary Off
Versions: 1 2 3 4 5 6 7 8 9 10 11 12 13 14 15 16 17 18 19 20 21 22

000
FTUS41 KPBZ 291300 AAB
TAFMGW
TAF AMD
KMGW 291333Z 2914/3012 20005KT P6SM BKN010
     FM291400 20006KT P6SM SCT012 OVC060
      TEMPO 2914/2915 BKN012
     FM291700 26010G16KT P6SM BKN150
     FM300400 28006KT P6SM BKN035=

USA.gov is the U.S. government's official web portal to all federal, state and local government web resources and services.